sensor_id;sensor_type;location;lat;lon;timestamp;pressure;altitude;pressure_sealevel;temperature;humidity
42671;BME280;28283;55.426;37.756;2023-11-25T00:02:56;96152.88;;;-6.07;82.56
42671;BME280;28283;55.426;37.756;2023-11-25T00:07:58;96178.22;;;-6.07;82.35
42671;BME280;28283;55.426;37.756;2023-11-25T00:12:58;96150.91;;;-6.05;82.45
42671;BME280;28283;55.426;37.756;2023-11-25T00:17:59;96157.44;;;-6.01;82.22
42671;BME280;28283;55.426;37.756;2023-11-25T00:22:59;96172.38;;;-5.95;82.51
42671;BME280;28283;55.426;37.756;2023-11-25T00:28:00;96173.00;;;-5.92;82.50
42671;BME280;28283;55.426;37.756;2023-11-25T00:33:01;96147.78;;;-6.00;82.68
42671;BME280;28283;55.426;37.756;2023-11-25T00:38:04;96172.31;;;-5.86;82.78
42671;BME280;28283;55.426;37.756;2023-11-25T00:43:08;96179.16;;;-5.85;82.64
42671;BME280;28283;55.426;37.756;2023-11-25T00:48:09;96083.97;;;-6.52;82.14
42671;BME280;28283;55.426;37.756;2023-11-25T00:53:09;96164.66;;;-6.03;83.36
42671;BME280;28283;55.426;37.756;2023-11-25T00:58:10;96166.34;;;-5.95;82.54
42671;BME280;28283;55.426;37.756;2023-11-25T01:03:12;96113.63;;;-6.22;82.50
42671;BME280;28283;55.426;37.756;2023-11-25T01:08:13;96193.16;;;-5.78;82.80
42671;BME280;28283;55.426;37.756;2023-11-25T01:13:13;96201.66;;;-5.76;82.70
42671;BME280;28283;55.426;37.756;2023-11-25T01:18:14;96195.91;;;-5.71;82.80
42671;BME280;28283;55.426;37.756;2023-11-25T01:23:15;96185.16;;;-5.77;83.03
42671;BME280;28283;55.426;37.756;2023-11-25T01:28:16;96124.22;;;-6.15;83.23
42671;BME280;28283;55.426;37.756;2023-11-25T01:33:16;96203.50;;;-5.62;82.90
42671;BME280;28283;55.426;37.756;2023-11-25T01:38:17;96185.78;;;-5.75;83.23
42671;BME280;28283;55.426;37.756;2023-11-25T01:43:19;96161.91;;;-5.95;82.97
42671;BME280;28283;55.426;37.756;2023-11-25T01:48:25;96214.25;;;-5.57;82.85
42671;BME280;28283;55.426;37.756;2023-11-25T01:53:27;96166.63;;;-5.90;83.33
42671;BME280;28283;55.426;37.756;2023-11-25T01:58:30;96224.09;;;-5.59;83.27
42671;BME280;28283;55.426;37.756;2023-11-25T02:03:31;96217.03;;;-5.58;83.82
42671;BME280;28283;55.426;37.756;2023-11-25T02:08:32;96177.38;;;-5.85;82.94
42671;BME280;28283;55.426;37.756;2023-11-25T02:13:32;96122.56;;;-6.16;82.87
42671;BME280;28283;55.426;37.756;2023-11-25T02:18:33;96228.44;;;-5.51;82.76
42671;BME280;28283;55.426;37.756;2023-11-25T02:23:33;96171.69;;;-5.88;82.95
42671;BME280;28283;55.426;37.756;2023-11-25T02:28:34;96224.72;;;-5.57;83.29
42671;BME280;28283;55.426;37.756;2023-11-25T02:33:36;96189.22;;;-5.74;83.16
42671;BME280;28283;55.426;37.756;2023-11-25T02:38:36;96231.50;;;-5.47;83.32
42671;BME280;28283;55.426;37.756;2023-11-25T02:43:38;96228.97;;;-5.56;83.36
42671;BME280;28283;55.426;37.756;2023-11-25T02:48:38;96233.03;;;-5.53;83.65
42671;BME280;28283;55.426;37.756;2023-11-25T02:53:39;96247.50;;;-5.42;83.52
42671;BME280;28283;55.426;37.756;2023-11-25T02:58:40;96256.66;;;-5.38;83.42
42671;BME280;28283;55.426;37.756;2023-11-25T03:03:41;96262.06;;;-5.40;83.79
42671;BME280;28283;55.426;37.756;2023-11-25T03:08:48;96256.44;;;-5.37;83.14
42671;BME280;28283;55.426;37.756;2023-11-25T03:13:49;96225.31;;;-5.69;83.30
42671;BME280;28283;55.426;37.756;2023-11-25T03:18:49;96216.53;;;-5.77;83.19
42671;BME280;28283;55.426;37.756;2023-11-25T03:23:50;96247.00;;;-5.61;82.75
42671;BME280;28283;55.426;37.756;2023-11-25T03:28:51;96293.81;;;-5.43;83.38
42671;BME280;28283;55.426;37.756;2023-11-25T03:33:52;96200.41;;;-6.03;83.49
42671;BME280;28283;55.426;37.756;2023-11-25T03:38:52;96293.34;;;-5.46;83.36
42671;BME280;28283;55.426;37.756;2023-11-25T03:43:53;96327.97;;;-5.36;83.51
42671;BME280;28283;55.426;37.756;2023-11-25T03:48:54;96317.66;;;-5.38;83.88
42671;BME280;28283;55.426;37.756;2023-11-25T03:53:54;96245.75;;;-5.88;83.66
42671;BME280;28283;55.426;37.756;2023-11-25T03:58:56;96320.03;;;-5.51;83.70
42671;BME280;28283;55.426;37.756;2023-11-25T04:03:57;96330.75;;;-5.38;83.86
42671;BME280;28283;55.426;37.756;2023-11-25T04:08:57;96334.47;;;-5.32;83.96
42671;BME280;28283;55.426;37.756;2023-11-25T04:13:58;96342.38;;;-5.40;83.71
42671;BME280;28283;55.426;37.756;2023-11-25T04:18:59;96354.31;;;-5.38;83.79
42671;BME280;28283;55.426;37.756;2023-11-25T04:23:59;96361.88;;;-5.43;82.33
42671;BME280;28283;55.426;37.756;2023-11-25T04:29:00;96371.22;;;-5.48;83.08
42671;BME280;28283;55.426;37.756;2023-11-25T04:34:01;96339.34;;;-5.75;84.02
42671;BME280;28283;55.426;37.756;2023-11-25T04:39:01;96370.16;;;-5.62;84.07
42671;BME280;28283;55.426;37.756;2023-11-25T04:44:02;96305.88;;;-6.11;83.41
42671;BME280;28283;55.426;37.756;2023-11-25T04:49:02;96388.47;;;-5.62;82.93
42671;BME280;28283;55.426;37.756;2023-11-25T04:54:04;96426.94;;;-5.63;83.26
42671;BME280;28283;55.426;37.756;2023-11-25T04:59:05;96429.41;;;-5.69;83.24
42671;BME280;28283;55.426;37.756;2023-11-25T05:04:07;96325.28;;;-6.37;83.41
42671;BME280;28283;55.426;37.756;2023-11-25T05:13:02;96440.81;;;-5.62;83.98
42671;BME280;28283;55.426;37.756;2023-11-25T05:18:05;96462.56;;;-5.62;83.04
42671;BME280;28283;55.426;37.756;2023-11-25T05:23:05;96469.13;;;-5.66;83.41
42671;BME280;28283;55.426;37.756;2023-11-25T05:28:06;96484.50;;;-5.63;83.08
42671;BME280;28283;55.426;37.756;2023-11-25T05:33:07;96485.31;;;-5.62;83.12
42671;BME280;28283;55.426;37.756;2023-11-25T05:38:08;96496.78;;;-5.63;82.70
42671;BME280;28283;55.426;37.756;2023-11-25T05:43:09;96505.56;;;-5.56;82.80
42671;BME280;28283;55.426;37.756;2023-11-25T05:48:10;96503.03;;;-5.81;82.47
42671;BME280;28283;55.426;37.756;2023-11-25T05:53:11;96533.91;;;-5.76;82.65
42671;BME280;28283;55.426;37.756;2023-11-25T05:58:12;96522.78;;;-5.78;82.92
42671;BME280;28283;55.426;37.756;2023-11-25T06:03:13;96534.22;;;-5.71;83.15
42671;BME280;28283;55.426;37.756;2023-11-25T06:08:14;96512.06;;;-5.91;81.70
42671;BME280;28283;55.426;37.756;2023-11-25T06:13:15;96542.13;;;-5.87;82.30
42671;BME280;28283;55.426;37.756;2023-11-25T06:18:16;96558.97;;;-5.90;82.83
42671;BME280;28283;55.426;37.756;2023-11-25T06:23:20;96582.97;;;-5.78;82.12
42671;BME280;28283;55.426;37.756;2023-11-25T06:28:21;96586.09;;;-5.83;82.58
42671;BME280;28283;55.426;37.756;2023-11-25T06:33:24;96611.59;;;-5.77;81.87
42671;BME280;28283;55.426;37.756;2023-11-25T06:38:25;96604.91;;;-5.79;82.32
42671;BME280;28283;55.426;37.756;2023-11-25T06:43:27;96629.59;;;-5.73;81.66
42671;BME280;28283;55.426;37.756;2023-11-25T06:48:27;96649.50;;;-5.64;81.88
42671;BME280;28283;55.426;37.756;2023-11-25T06:53:28;96672.75;;;-5.61;81.68
42671;BME280;28283;55.426;37.756;2023-11-25T06:58:29;96676.00;;;-5.59;82.28
42671;BME280;28283;55.426;37.756;2023-11-25T07:03:30;96647.25;;;-5.84;80.99
42671;BME280;28283;55.426;37.756;2023-11-25T07:08:31;96700.69;;;-5.62;81.59
42671;BME280;28283;55.426;37.756;2023-11-25T07:13:33;96692.84;;;-5.78;82.09
42671;BME280;28283;55.426;37.756;2023-11-25T07:18:34;96726.53;;;-5.42;81.91
42671;BME280;28283;55.426;37.756;2023-11-25T07:23:35;96675.38;;;-5.61;81.56
42671;BME280;28283;55.426;37.756;2023-11-25T07:28:36;96741.53;;;-5.03;80.49
42671;BME280;28283;55.426;37.756;2023-11-25T07:33:37;96736.81;;;-5.24;80.71
42671;BME280;28283;55.426;37.756;2023-11-25T07:38:38;96757.63;;;-5.31;80.94
42671;BME280;28283;55.426;37.756;2023-11-25T07:43:39;96710.84;;;-5.34;80.18
42671;BME280;28283;55.426;37.756;2023-11-25T07:48:39;96772.31;;;-5.13;78.28
42671;BME280;28283;55.426;37.756;2023-11-25T07:53:40;96781.03;;;-5.21;78.61
42671;BME280;28283;55.426;37.756;2023-11-25T07:58:41;96769.25;;;-5.25;77.73
42671;BME280;28283;55.426;37.756;2023-11-25T08:03:41;96822.28;;;-5.15;78.60
42671;BME280;28283;55.426;37.756;2023-11-25T08:08:42;96764.34;;;-5.45;77.98
42671;BME280;28283;55.426;37.756;2023-11-25T08:13:44;96843.25;;;-5.15;78.58
42671;BME280;28283;55.426;37.756;2023-11-25T08:18:45;96853.38;;;-5.12;77.86
42671;BME280;28283;55.426;37.756;2023-11-25T08:23:46;96871.69;;;-5.28;77.98
42671;BME280;28283;55.426;37.756;2023-11-25T08:28:49;96890.69;;;-5.18;78.52
42671;BME280;28283;55.426;37.756;2023-11-25T08:33:50;96911.34;;;-5.15;79.75
42671;BME280;28283;55.426;37.756;2023-11-25T08:38:51;96915.91;;;-5.09;80.24
42671;BME280;28283;55.426;37.756;2023-11-25T08:43:56;96904.91;;;-5.21;80.68
42671;BME280;28283;55.426;37.756;2023-11-25T08:48:59;96900.84;;;-5.23;80.06
42671;BME280;28283;55.426;37.756;2023-11-25T08:54:00;96930.63;;;-5.16;80.85
42671;BME280;28283;55.426;37.756;2023-11-25T08:59:00;96856.91;;;-5.62;80.43
42671;BME280;28283;55.426;37.756;2023-11-25T09:04:01;96960.78;;;-4.95;80.26
42671;BME280;28283;55.426;37.756;2023-11-25T09:09:03;96969.81;;;-4.82;79.76
42671;BME280;28283;55.426;37.756;2023-11-25T09:14:07;96997.16;;;-4.84;79.55
42671;BME280;28283;55.426;37.756;2023-11-25T09:19:08;96989.47;;;-4.86;79.06
42671;BME280;28283;55.426;37.756;2023-11-25T09:24:09;97016.03;;;-4.64;78.88
42671;BME280;28283;55.426;37.756;2023-11-25T09:29:10;96975.34;;;-5.01;78.76
42671;BME280;28283;55.426;37.756;2023-11-25T09:34:10;96945.31;;;-5.31;79.52
42671;BME280;28283;55.426;37.756;2023-11-25T09:39:12;97024.97;;;-5.08;79.18
42671;BME280;28283;55.426;37.756;2023-11-25T09:44:15;97050.66;;;-5.03;78.87
42671;BME280;28283;55.426;37.756;2023-11-25T09:49:16;97096.06;;;-4.94;79.25
42671;BME280;28283;55.426;37.756;2023-11-25T09:54:21;97098.13;;;-5.06;78.90
42671;BME280;28283;55.426;37.756;2023-11-25T09:59:27;97072.38;;;-5.19;78.80
42671;BME280;28283;55.426;37.756;2023-11-25T10:04:29;97142.56;;;-4.96;78.19
42671;BME280;28283;55.426;37.756;2023-11-25T10:09:30;97141.19;;;-5.09;78.91
42671;BME280;28283;55.426;37.756;2023-11-25T10:14:30;97100.31;;;-5.36;78.70
42671;BME280;28283;55.426;37.756;2023-11-25T10:19:31;97111.16;;;-5.23;78.38
42671;BME280;28283;55.426;37.756;2023-11-25T10:24:32;97174.06;;;-5.14;79.38
42671;BME280;28283;55.426;37.756;2023-11-25T10:29:33;97160.25;;;-5.25;79.71
42671;BME280;28283;55.426;37.756;2023-11-25T10:34:34;97152.41;;;-5.51;80.15
42671;BME280;28283;55.426;37.756;2023-11-25T10:39:36;97211.34;;;-5.47;80.90
42671;BME280;28283;55.426;37.756;2023-11-25T10:44:37;97216.72;;;-4.96;79.22
42671;BME280;28283;55.426;37.756;2023-11-25T10:49:39;97102.00;;;-5.53;78.15
42671;BME280;28283;55.426;37.756;2023-11-25T10:54:43;97218.91;;;-4.83;77.23
42671;BME280;28283;55.426;37.756;2023-11-25T10:59:45;97238.69;;;-4.97;78.19
42671;BME280;28283;55.426;37.756;2023-11-25T11:04:48;97262.19;;;-5.05;77.87
42671;BME280;28283;55.426;37.756;2023-11-25T11:09:57;97261.25;;;-5.04;78.29
42671;BME280;28283;55.426;37.756;2023-11-25T11:15:03;97257.03;;;-4.97;78.83
42671;BME280;28283;55.426;37.756;2023-11-25T11:20:11;97193.06;;;-5.39;78.16
42671;BME280;28283;55.426;37.756;2023-11-25T11:25:25;97288.63;;;-4.99;78.09
42671;BME280;28283;55.426;37.756;2023-11-25T11:35:36;97329.19;;;-5.21;79.20
42671;BME280;28283;55.426;37.756;2023-11-25T11:40:40;97321.53;;;-4.96;79.12
42671;BME280;28283;55.426;37.756;2023-11-25T11:45:41;97321.78;;;-5.07;79.52
42671;BME280;28283;55.426;37.756;2023-11-25T11:50:43;97267.00;;;-5.45;79.23
42671;BME280;28283;55.426;37.756;2023-11-25T11:55:57;97367.50;;;-5.02;79.50
42671;BME280;28283;55.426;37.756;2023-11-25T12:06:03;97288.69;;;-5.52;79.60
42671;BME280;28283;55.426;37.756;2023-11-25T12:11:05;97292.41;;;-5.73;79.21
42671;BME280;28283;55.426;37.756;2023-11-25T12:16:07;97391.53;;;-5.06;79.08
42671;BME280;28283;55.426;37.756;2023-11-25T12:21:09;97400.81;;;-5.12;79.42
42671;BME280;28283;55.426;37.756;2023-11-25T12:26:10;97381.75;;;-5.22;78.70
42671;BME280;28283;55.426;37.756;2023-11-25T12:31:11;97358.63;;;-5.45;79.02
42671;BME280;28283;55.426;37.756;2023-11-25T12:36:12;97430.81;;;-5.06;78.55
42671;BME280;28283;55.426;37.756;2023-11-25T12:41:12;97455.00;;;-5.12;77.95
42671;BME280;28283;55.426;37.756;2023-11-25T12:46:15;97470.50;;;-5.19;78.75
42671;BME280;28283;55.426;37.756;2023-11-25T12:51:18;97450.94;;;-5.43;79.39
42671;BME280;28283;55.426;37.756;2023-11-25T12:56:19;97460.88;;;-5.19;79.96
42671;BME280;28283;55.426;37.756;2023-11-25T13:01:23;97465.50;;;-5.12;79.63
42671;BME280;28283;55.426;37.756;2023-11-25T13:06:25;97490.22;;;-5.43;79.90
42671;BME280;28283;55.426;37.756;2023-11-25T13:11:26;97506.09;;;-5.26;80.54
42671;BME280;28283;55.426;37.756;2023-11-25T13:16:26;97513.28;;;-5.28;80.33
42671;BME280;28283;55.426;37.756;2023-11-25T13:21:27;97467.31;;;-5.41;80.63
42671;BME280;28283;55.426;37.756;2023-11-25T13:26:28;97427.47;;;-5.62;80.24
42671;BME280;28283;55.426;37.756;2023-11-25T13:31:29;97390.78;;;-5.98;80.20
42671;BME280;28283;55.426;37.756;2023-11-25T13:36:30;97514.41;;;-5.31;80.57
42671;BME280;28283;55.426;37.756;2023-11-25T13:41:30;97537.03;;;-5.12;80.44
42671;BME280;28283;55.426;37.756;2023-11-25T13:46:31;97549.28;;;-5.30;80.03
42671;BME280;28283;55.426;37.756;2023-11-25T13:51:31;97530.56;;;-5.35;80.34
42671;BME280;28283;55.426;37.756;2023-11-25T13:56:32;97509.97;;;-5.58;81.47
42671;BME280;28283;55.426;37.756;2023-11-25T14:01:33;97548.63;;;-5.42;81.24
42671;BME280;28283;55.426;37.756;2023-11-25T14:06:33;97519.34;;;-5.56;81.48
42671;BME280;28283;55.426;37.756;2023-11-25T14:11:34;97562.56;;;-5.42;81.37
42671;BME280;28283;55.426;37.756;2023-11-25T14:16:35;97594.19;;;-5.25;80.82
42671;BME280;28283;55.426;37.756;2023-11-25T14:21:35;97553.69;;;-5.31;81.19
42671;BME280;28283;55.426;37.756;2023-11-25T14:26:36;97575.41;;;-5.48;80.73
42671;BME280;28283;55.426;37.756;2023-11-25T14:31:37;97603.41;;;-5.21;80.88
42671;BME280;28283;55.426;37.756;2023-11-25T14:36:38;97550.03;;;-5.48;80.42
42671;BME280;28283;55.426;37.756;2023-11-25T14:41:38;97644.38;;;-5.30;80.71
42671;BME280;28283;55.426;37.756;2023-11-25T14:46:39;97626.81;;;-5.57;81.21
42671;BME280;28283;55.426;37.756;2023-11-25T14:51:40;97648.25;;;-5.34;81.20
42671;BME280;28283;55.426;37.756;2023-11-25T14:56:41;97659.59;;;-5.43;82.33
42671;BME280;28283;55.426;37.756;2023-11-25T15:01:45;97666.59;;;-5.34;82.17
42671;BME280;28283;55.426;37.756;2023-11-25T15:06:46;97688.22;;;-5.32;82.55
42671;BME280;28283;55.426;37.756;2023-11-25T15:11:47;97686.41;;;-5.22;82.69
42671;BME280;28283;55.426;37.756;2023-11-25T15:16:48;97631.47;;;-5.51;82.80
42671;BME280;28283;55.426;37.756;2023-11-25T15:21:51;97708.31;;;-5.13;82.26
42671;BME280;28283;55.426;37.756;2023-11-25T15:26:52;97730.63;;;-5.09;82.89
42671;BME280;28283;55.426;37.756;2023-11-25T15:31:53;97688.38;;;-5.43;82.62
42671;BME280;28283;55.426;37.756;2023-11-25T15:36:55;97729.66;;;-5.08;81.92
42671;BME280;28283;55.426;37.756;2023-11-25T15:41:55;97755.88;;;-5.08;82.36
42671;BME280;28283;55.426;37.756;2023-11-25T15:46:56;97674.06;;;-5.59;82.58
42671;BME280;28283;55.426;37.756;2023-11-25T15:51:56;97768.66;;;-5.05;82.44
42671;BME280;28283;55.426;37.756;2023-11-25T15:56:57;97766.91;;;-5.04;82.37
42671;BME280;28283;55.426;37.756;2023-11-25T16:01:58;97768.56;;;-5.13;82.55
42671;BME280;28283;55.426;37.756;2023-11-25T16:06:59;97795.72;;;-5.04;81.86
42671;BME280;28283;55.426;37.756;2023-11-25T16:11:59;97770.63;;;-5.26;82.07
42671;BME280;28283;55.426;37.756;2023-11-25T16:17:02;97785.94;;;-5.22;82.03
42671;BME280;28283;55.426;37.756;2023-11-25T16:22:06;97797.94;;;-5.09;82.38
42671;BME280;28283;55.426;37.756;2023-11-25T16:27:08;97745.44;;;-5.27;81.40
42671;BME280;28283;55.426;37.756;2023-11-25T16:32:09;97816.25;;;-5.00;82.03
42671;BME280;28283;55.426;37.756;2023-11-25T16:37:13;97822.56;;;-4.92;82.54
42671;BME280;28283;55.426;37.756;2023-11-25T16:42:14;97852.09;;;-4.90;82.67
42671;BME280;28283;55.426;37.756;2023-11-25T16:47:15;97767.75;;;-5.33;82.38
42671;BME280;28283;55.426;37.756;2023-11-25T16:52:15;97847.97;;;-4.93;82.42
42671;BME280;28283;55.426;37.756;2023-11-25T16:57:16;97840.25;;;-5.04;82.14
42671;BME280;28283;55.426;37.756;2023-11-25T17:02:18;97824.81;;;-5.07;81.60
42671;BME280;28283;55.426;37.756;2023-11-25T17:07:19;97852.88;;;-4.70;80.73
42671;BME280;28283;55.426;37.756;2023-11-25T17:12:19;97867.25;;;-4.94;79.87
42671;BME280;28283;55.426;37.756;2023-11-25T17:17:20;97780.16;;;-5.64;81.14
42671;BME280;28283;55.426;37.756;2023-11-25T17:22:21;97811.56;;;-5.15;80.55
42671;BME280;28283;55.426;37.756;2023-11-25T17:27:22;97902.56;;;-4.98;81.08
42671;BME280;28283;55.426;37.756;2023-11-25T17:32:24;97899.13;;;-5.18;81.66
42671;BME280;28283;55.426;37.756;2023-11-25T17:37:25;97894.56;;;-5.06;81.63
42671;BME280;28283;55.426;37.756;2023-11-25T17:42:26;97909.19;;;-5.04;81.76
42671;BME280;28283;55.426;37.756;2023-11-25T17:47:26;97896.78;;;-5.02;82.11
42671;BME280;28283;55.426;37.756;2023-11-25T17:52:27;97887.00;;;-5.00;81.95
42671;BME280;28283;55.426;37.756;2023-11-25T17:57:28;97915.28;;;-4.93;82.21
42671;BME280;28283;55.426;37.756;2023-11-25T18:02:29;97934.88;;;-4.88;82.34
42671;BME280;28283;55.426;37.756;2023-11-25T18:07:30;97844.78;;;-5.65;82.47
42671;BME280;28283;55.426;37.756;2023-11-25T18:12:30;97954.88;;;-4.77;82.12
42671;BME280;28283;55.426;37.756;2023-11-25T18:17:31;97956.22;;;-4.73;82.25
42671;BME280;28283;55.426;37.756;2023-11-25T18:22:32;97965.75;;;-4.72;82.49
42671;BME280;28283;55.426;37.756;2023-11-25T18:27:33;97963.16;;;-4.72;81.80
42671;BME280;28283;55.426;37.756;2023-11-25T18:32:34;97954.28;;;-4.71;82.42
42671;BME280;28283;55.426;37.756;2023-11-25T18:37:35;97929.47;;;-4.96;82.31
42671;BME280;28283;55.426;37.756;2023-11-25T18:42:35;97971.13;;;-4.64;82.44
42671;BME280;28283;55.426;37.756;2023-11-25T18:47:37;97953.03;;;-4.67;81.81
42671;BME280;28283;55.426;37.756;2023-11-25T18:52:38;97963.41;;;-4.55;81.73
42671;BME280;28283;55.426;37.756;2023-11-25T18:57:39;97849.09;;;-5.15;81.46
42671;BME280;28283;55.426;37.756;2023-11-25T19:02:40;97922.41;;;-4.76;82.10
42671;BME280;28283;55.426;37.756;2023-11-25T19:07:41;97966.00;;;-4.36;82.66
42671;BME280;28283;55.426;37.756;2023-11-25T19:12:42;97973.59;;;-4.43;81.95
42671;BME280;28283;55.426;37.756;2023-11-25T19:17:43;97948.50;;;-4.55;81.97
42671;BME280;28283;55.426;37.756;2023-11-25T19:22:44;97941.75;;;-4.57;81.89
42671;BME280;28283;55.426;37.756;2023-11-25T19:27:44;97930.56;;;-4.69;82.24
42671;BME280;28283;55.426;37.756;2023-11-25T19:32:45;97989.00;;;-4.20;81.75
42671;BME280;28283;55.426;37.756;2023-11-25T19:37:46;97932.91;;;-4.76;81.05
42671;BME280;28283;55.426;37.756;2023-11-25T19:42:46;98009.31;;;-4.22;81.27
42671;BME280;28283;55.426;37.756;2023-11-25T19:47:47;98003.41;;;-4.34;81.70
42671;BME280;28283;55.426;37.756;2023-11-25T19:52:48;98006.03;;;-4.24;81.27
42671;BME280;28283;55.426;37.756;2023-11-25T19:57:48;98003.63;;;-4.08;81.38
42671;BME280;28283;55.426;37.756;2023-11-25T20:02:49;98011.69;;;-4.19;81.22
42671;BME280;28283;55.426;37.756;2023-11-25T20:07:50;98008.78;;;-4.26;81.89
42671;BME280;28283;55.426;37.756;2023-11-25T20:12:51;98015.97;;;-4.28;81.85
42671;BME280;28283;55.426;37.756;2023-11-25T20:17:52;97937.06;;;-4.73;82.00
42671;BME280;28283;55.426;37.756;2023-11-25T20:22:54;97922.16;;;-4.83;81.99
42671;BME280;28283;55.426;37.756;2023-11-25T20:27:55;97981.03;;;-4.38;82.27
42671;BME280;28283;55.426;37.756;2023-11-25T20:32:56;98000.78;;;-4.14;82.08
42671;BME280;28283;55.426;37.756;2023-11-25T20:37:56;97993.28;;;-4.09;82.27
42671;BME280;28283;55.426;37.756;2023-11-25T20:42:57;98001.03;;;-4.17;80.91
42671;BME280;28283;55.426;37.756;2023-11-25T20:47:57;98011.66;;;-4.09;81.95
42671;BME280;28283;55.426;37.756;2023-11-25T20:52:58;98017.75;;;-4.18;81.85
42671;BME280;28283;55.426;37.756;2023-11-25T20:58:01;98012.22;;;-4.15;82.47
42671;BME280;28283;55.426;37.756;2023-11-25T21:03:02;98006.56;;;-4.20;82.23
42671;BME280;28283;55.426;37.756;2023-11-25T21:08:02;98032.91;;;-3.93;81.82
42671;BME280;28283;55.426;37.756;2023-11-25T21:13:03;98031.09;;;-4.02;82.40
42671;BME280;28283;55.426;37.756;2023-11-25T21:18:03;98021.59;;;-4.03;81.79
42671;BME280;28283;55.426;37.756;2023-11-25T21:23:05;98028.22;;;-3.99;82.09
42671;BME280;28283;55.426;37.756;2023-11-25T21:28:06;98039.94;;;-3.84;81.59
42671;BME280;28283;55.426;37.756;2023-11-25T21:33:08;98001.44;;;-4.12;81.21
42671;BME280;28283;55.426;37.756;2023-11-25T21:38:09;98014.44;;;-4.11;81.65
42671;BME280;28283;55.426;37.756;2023-11-25T21:43:09;98039.78;;;-3.82;81.35
42671;BME280;28283;55.426;37.756;2023-11-25T21:48:10;97979.78;;;-4.24;81.39
42671;BME280;28283;55.426;37.756;2023-11-25T21:53:10;98028.31;;;-3.81;81.73
42671;BME280;28283;55.426;37.756;2023-11-25T21:58:11;98018.16;;;-4.04;81.25
42671;BME280;28283;55.426;37.756;2023-11-25T22:03:12;98047.81;;;-3.93;80.83
42671;BME280;28283;55.426;37.756;2023-11-25T22:08:12;98061.22;;;-3.87;81.39
42671;BME280;28283;55.426;37.756;2023-11-25T22:13:13;98015.84;;;-4.36;81.20
42671;BME280;28283;55.426;37.756;2023-11-25T22:18:13;98062.75;;;-3.94;81.71
42671;BME280;28283;55.426;37.756;2023-11-25T22:23:14;98043.56;;;-4.14;81.76
42671;BME280;28283;55.426;37.756;2023-11-25T22:28:17;98037.63;;;-4.26;81.82
42671;BME280;28283;55.426;37.756;2023-11-25T22:33:17;98078.78;;;-4.07;81.51
42671;BME280;28283;55.426;37.756;2023-11-25T22:38:18;98072.44;;;-4.14;81.72
42671;BME280;28283;55.426;37.756;2023-11-25T22:43:18;98048.00;;;-4.44;81.80
42671;BME280;28283;55.426;37.756;2023-11-25T22:48:19;97982.56;;;-4.94;81.11
42671;BME280;28283;55.426;37.756;2023-11-25T22:53:20;98112.22;;;-4.18;81.87
42671;BME280;28283;55.426;37.756;2023-11-25T22:58:20;98109.44;;;-4.17;81.98
42671;BME280;28283;55.426;37.756;2023-11-25T23:03:21;98110.53;;;-4.29;81.90
42671;BME280;28283;55.426;37.756;2023-11-25T23:08:21;98114.97;;;-4.20;81.48
42671;BME280;28283;55.426;37.756;2023-11-25T23:13:23;98064.41;;;-4.71;81.87
42671;BME280;28283;55.426;37.756;2023-11-25T23:18:23;98117.88;;;-4.33;82.04
42671;BME280;28283;55.426;37.756;2023-11-25T23:23:25;98117.59;;;-4.39;82.22
42671;BME280;28283;55.426;37.756;2023-11-25T23:28:26;98133.19;;;-4.38;82.23
42671;BME280;28283;55.426;37.756;2023-11-25T23:33:28;98103.22;;;-4.45;82.41
42671;BME280;28283;55.426;37.756;2023-11-25T23:38:28;98103.50;;;-4.48;82.78
42671;BME280;28283;55.426;37.756;2023-11-25T23:43:29;98104.88;;;-4.44;82.69
42671;BME280;28283;55.426;37.756;2023-11-25T23:48:30;98036.94;;;-4.86;82.90
42671;BME280;28283;55.426;37.756;2023-11-25T23:53:31;98109.03;;;-4.32;83.05
42671;BME280;28283;55.426;37.756;2023-11-25T23:58:31;98081.28;;;-4.44;83.88
